Time;durP1;ratioP1;P1;durP2;ratioP2;P2;SDS_P1;SDS_P2;PMS_P1;PMS_P2;Temp;Humidity;BMP_temperature;BMP_pressure;BME280_temperature;BME280_humidity;BME280_pressure;Samples;Min_cycle;Max_cycle;Signal;HPM_P1;HPM_P2
2021/06/16 00:01:56;;;;;;;17.00;14.43;;;15.50;99.90;;;;;;5036290;28;20132;-85
2021/06/16 00:04:23;;;;;;;14.70;13.32;;;15.40;99.90;;;;;;5018955;28;20072;-85
2021/06/16 00:06:51;;;;;;;16.90;15.18;;;15.40;99.90;;;;;;5035888;28;20582;-85
2021/06/16 00:09:18;;;;;;;16.27;14.25;;;15.40;99.90;;;;;;5018764;28;20057;-86
2021/06/16 00:11:47;;;;;;;15.85;13.38;;;15.40;99.90;;;;;;5018763;28;20057;-86
2021/06/16 00:14:13;;;;;;;15.30;13.73;;;15.30;99.90;;;;;;5018393;28;20128;-84
2021/06/16 00:16:42;;;;;;;16.70;13.88;;;15.50;99.90;;;;;;5018217;28;20056;-85
2021/06/16 00:19:09;;;;;;;15.23;13.27;;;15.50;99.90;;;;;;5018305;28;20156;-85
2021/06/16 00:21:36;;;;;;;15.73;14.00;;;15.60;99.90;;;;;;5018192;28;20137;-85
2021/06/16 00:24:04;;;;;;;15.65;13.95;;;15.60;99.90;;;;;;5018586;28;20487;-85
2021/06/16 00:26:30;;;;;;;15.57;13.75;;;15.60;99.90;;;;;;5018256;28;20133;-86
2021/06/16 00:28:57;;;;;;;19.02;14.68;;;15.60;99.90;;;;;;5018050;28;20421;-86
2021/06/16 00:31:24;;;;;;;19.95;13.95;;;15.50;99.90;;;;;;5018202;28;20054;-85
2021/06/16 00:33:51;;;;;;;16.10;14.45;;;15.50;99.90;;;;;;5018160;28;20050;-86
2021/06/16 00:36:18;;;;;;;16.10;13.52;;;15.40;99.90;;;;;;5018373;28;20053;-86
2021/06/16 00:38:44;;;;;;;17.55;14.50;;;15.40;99.90;;;;;;5044398;28;20041;-86
2021/06/16 00:41:12;;;;;;;18.83;15.18;;;15.30;99.90;;;;;;5025211;28;20137;-85
2021/06/16 00:43:39;;;;;;;18.02;15.82;;;15.40;99.90;;;;;;5018003;28;20064;-86
2021/06/16 00:46:05;;;;;;;19.17;15.02;;;15.30;99.90;;;;;;5017628;28;20052;-86
2021/06/16 00:48:32;;;;;;;17.13;15.40;;;15.30;99.90;;;;;;5035156;28;20057;-85
2021/06/16 00:50:59;;;;;;;19.88;16.17;;;15.20;99.90;;;;;;5017540;28;20049;-85
2021/06/16 00:53:27;;;;;;;19.63;16.55;;;15.20;99.90;;;;;;5017810;28;20088;-85
2021/06/16 00:55:53;;;;;;;17.15;14.77;;;15.20;99.90;;;;;;5017650;28;20056;-85
2021/06/16 00:58:21;;;;;;;18.48;15.07;;;15.20;99.90;;;;;;5018000;28;20053;-85
2021/06/16 01:01:07;;;;;;;16.58;14.70;;;15.20;99.90;;;;;;5035015;28;20057;-86
2021/06/16 01:03:47;;;;;;;16.58;14.85;;;15.10;99.90;;;;;;5017292;28;20057;-85
2021/06/16 01:06:14;;;;;;;17.65;15.75;;;15.10;99.90;;;;;;5017309;28;20508;-86
2021/06/16 01:08:56;;;;;;;22.75;15.18;;;15.10;99.90;;;;;;5017441;28;20055;-86
2021/06/16 01:11:25;;;;;;;19.17;16.38;;;15.00;99.90;;;;;;5035023;28;20473;-86
2021/06/16 01:13:54;;;;;;;17.10;15.10;;;15.00;99.90;;;;;;5017091;28;20045;-85
2021/06/16 01:16:40;;;;;;;17.65;15.68;;;15.10;99.90;;;;;;5017083;28;20410;-85
2021/06/16 01:19:32;;;;;;;16.67;14.80;;;15.20;99.90;;;;;;5034563;28;20046;-85
2021/06/16 01:22:02;;;;;;;18.65;16.05;;;15.10;99.90;;;;;;5017446;28;20485;-85
2021/06/16 01:24:31;;;;;;;16.83;15.13;;;15.20;99.90;;;;;;5016600;28;20061;-85
2021/06/16 01:27:00;;;;;;;16.67;15.02;;;15.20;99.90;;;;;;5016979;28;20585;-86
2021/06/16 01:29:45;;;;;;;19.95;15.00;;;15.20;99.90;;;;;;5034396;28;20056;-85
2021/06/16 01:32:12;;;;;;;17.90;14.27;;;15.10;99.90;;;;;;5017241;28;20424;-85
2021/06/16 01:34:40;;;;;;;16.92;15.25;;;15.20;99.90;;;;;;5016548;28;20057;-85
2021/06/16 01:37:08;;;;;;;17.08;15.05;;;15.10;99.90;;;;;;5016691;28;20053;-85
2021/06/16 01:39:37;;;;;;;16.65;14.85;;;15.10;99.90;;;;;;5016924;28;20095;-85
2021/06/16 01:42:10;;;;;;;16.65;14.95;;;15.10;99.90;;;;;;5016809;28;20053;-84
2021/06/16 01:44:37;;;;;;;17.20;15.40;;;15.10;99.90;;;;;;5017095;28;20060;-85
2021/06/16 01:47:05;;;;;;;17.90;15.27;;;15.00;99.90;;;;;;5033568;28;20049;-85
2021/06/16 01:49:33;;;;;;;18.38;15.43;;;14.90;99.90;;;;;;5016672;28;20057;-85
2021/06/16 01:52:02;;;;;;;17.65;15.65;;;14.80;99.90;;;;;;5033882;28;20080;-85
2021/06/16 01:54:30;;;;;;;21.95;16.30;;;14.80;99.90;;;;;;5016511;28;20502;-85
2021/06/16 01:56:58;;;;;;;17.95;16.13;;;14.80;99.90;;;;;;5036399;28;20056;-86
2021/06/16 01:59:27;;;;;;;20.35;18.30;;;14.80;99.90;;;;;;5028258;28;20105;-85
2021/06/16 02:01:54;;;;;;;18.73;16.92;;;14.80;99.90;;;;;;5016854;28;20516;-85
2021/06/16 02:04:21;;;;;;;20.08;17.38;;;14.70;99.90;;;;;;5016767;28;20045;-86
2021/06/16 02:06:55;;;;;;;23.90;17.95;;;14.60;99.90;;;;;;5016447;28;20508;-86
2021/06/16 02:09:24;;;;;;;18.70;15.85;;;14.50;99.90;;;;;;5016191;28;20045;-85
2021/06/16 02:11:51;;;;;;;20.98;16.85;;;14.60;99.90;;;;;;5016175;28;20080;-85
2021/06/16 02:14:20;;;;;;;17.73;15.82;;;14.60;99.90;;;;;;5033465;28;20409;-85
2021/06/16 02:16:56;;;;;;;18.17;16.38;;;14.60;99.90;;;;;;5033840;28;20045;-86
2021/06/16 02:19:32;;;;;;;21.48;19.15;;;14.50;99.90;;;;;;5016780;28;20072;-86
2021/06/16 02:22:00;;;;;;;21.55;19.25;;;14.40;99.90;;;;;;5033886;28;20057;-86
2021/06/16 02:24:27;;;;;;;21.40;19.05;;;14.30;99.90;;;;;;5015732;28;20391;-86
2021/06/16 02:26:54;;;;;;;22.40;19.08;;;14.40;99.90;;;;;;5033226;28;20051;-86
2021/06/16 02:29:23;;;;;;;21.25;17.65;;;14.30;99.90;;;;;;5016189;28;20088;-85
2021/06/16 02:31:50;;;;;;;20.10;17.77;;;14.40;99.90;;;;;;5015945;28;20561;-86
2021/06/16 02:34:18;;;;;;;19.90;17.80;;;14.30;99.90;;;;;;5033359;28;20068;-86
2021/06/16 02:36:50;;;;;;;20.83;17.88;;;14.20;99.90;;;;;;5014989;28;20498;-85
2021/06/16 02:39:20;;;;;;;22.10;19.75;;;14.20;99.90;;;;;;5032989;28;20049;-85
2021/06/16 02:41:48;;;;;;;23.55;20.10;;;14.20;99.90;;;;;;5015909;28;20049;-86
2021/06/16 02:44:15;;;;;;;26.42;20.23;;;14.10;99.90;;;;;;5016030;28;20145;-85
2021/06/16 02:46:47;;;;;;;25.42;21.80;;;14.10;99.90;;;;;;5015726;28;20487;-86
2021/06/16 02:49:14;;;;;;;22.05;19.75;;;14.00;99.90;;;;;;5015433;28;20458;-85
2021/06/16 02:51:42;;;;;;;26.70;21.20;;;14.00;99.90;;;;;;5015596;28;20045;-86
2021/06/16 02:54:14;;;;;;;25.77;19.92;;;13.90;99.90;;;;;;5033032;28;20110;-86
2021/06/16 02:56:43;;;;;;;21.35;18.98;;;13.80;99.90;;;;;;5033019;28;20049;-86
2021/06/16 02:59:12;;;;;;;22.40;20.00;;;13.80;99.90;;;;;;5033114;28;20049;-85
2021/06/16 03:01:39;;;;;;;23.95;20.55;;;13.80;99.90;;;;;;5015488;28;20052;-86
2021/06/16 03:04:07;;;;;;;27.52;21.52;;;13.80;99.90;;;;;;5015333;28;20075;-86
2021/06/16 03:06:34;;;;;;;24.13;21.13;;;13.80;99.90;;;;;;5015502;28;20052;-85
2021/06/16 03:09:02;;;;;;;21.90;19.58;;;13.80;99.90;;;;;;5015919;28;20409;-86
2021/06/16 03:11:31;;;;;;;24.20;21.63;;;13.80;99.90;;;;;;5015896;28;20049;-86
2021/06/16 03:13:59;;;;;;;26.75;23.08;;;13.80;99.90;;;;;;5017424;28;20084;-86
2021/06/16 03:16:27;;;;;;;27.48;23.52;;;13.70;99.90;;;;;;5022715;28;20106;-86
2021/06/16 03:18:58;;;;;;;24.50;21.63;;;13.70;99.90;;;;;;5025620;28;20516;-85
2021/06/16 03:21:26;;;;;;;24.05;20.45;;;13.70;99.90;;;;;;5016293;28;20045;-85
2021/06/16 03:23:53;;;;;;;27.70;22.13;;;13.90;99.90;;;;;;5032834;28;20484;-86
2021/06/16 03:26:23;;;;;;;24.17;20.83;;;13.90;99.90;;;;;;5032983;28;20053;-86
2021/06/16 03:28:50;;;;;;;27.83;21.33;;;13.80;99.90;;;;;;5015792;28;20059;-85
2021/06/16 03:31:18;;;;;;;25.02;20.80;;;13.80;99.90;;;;;;5015590;28;20052;-86
2021/06/16 03:33:46;;;;;;;25.10;21.60;;;13.80;99.90;;;;;;5032814;28;20053;-86
2021/06/16 03:36:15;;;;;;;27.05;23.88;;;13.70;99.90;;;;;;5015464;28;20473;-86
2021/06/16 03:38:43;;;;;;;27.40;22.17;;;13.70;99.90;;;;;;5015257;28;20497;-86
2021/06/16 03:41:11;;;;;;;27.23;22.95;;;13.70;99.90;;;;;;5015607;28;20581;-86
2021/06/16 03:43:39;;;;;;;25.95;23.17;;;13.80;99.90;;;;;;5032594;28;20145;-86
2021/06/16 03:46:06;;;;;;;26.23;23.42;;;13.80;99.90;;;;;;5015430;28;20092;-86
2021/06/16 03:48:35;;;;;;;28.75;25.65;;;13.80;99.90;;;;;;5016768;28;20057;-86
2021/06/16 03:51:03;;;;;;;27.55;21.75;;;13.80;99.90;;;;;;5036444;28;20506;-85
2021/06/16 03:53:31;;;;;;;21.25;18.85;;;13.90;99.90;;;;;;5036085;28;20409;-86
2021/06/16 03:55:59;;;;;;;21.30;19.00;;;14.10;99.90;;;;;;5018591;28;20081;-86
2021/06/16 03:58:26;;;;;;;19.60;17.63;;;14.20;99.90;;;;;;5018756;28;20045;-86
2021/06/16 04:00:53;;;;;;;20.83;18.70;;;14.10;99.90;;;;;;5035995;28;20500;-86
2021/06/16 04:03:21;;;;;;;21.17;18.95;;;14.20;99.90;;;;;;5018690;28;20057;-86
2021/06/16 04:05:48;;;;;;;19.65;17.63;;;14.20;99.90;;;;;;5018523;28;20060;-86
2021/06/16 04:08:15;;;;;;;23.85;18.98;;;14.30;99.90;;;;;;5036163;28;20415;-86
2021/06/16 04:10:45;;;;;;;19.60;17.60;;;14.40;99.90;;;;;;5018795;28;20053;-86
2021/06/16 04:13:13;;;;;;;18.63;16.77;;;14.40;99.90;;;;;;5035750;28;20084;-86
2021/06/16 04:15:40;;;;;;;17.80;16.00;;;14.60;99.90;;;;;;5035767;28;20053;-86
2021/06/16 04:18:07;;;;;;;19.33;15.57;;;14.80;99.90;;;;;;5018866;28;20045;-86
2021/06/16 04:20:35;;;;;;;16.30;14.60;;;14.90;99.90;;;;;;5018616;28;20441;-86
2021/06/16 04:23:03;;;;;;;16.38;14.68;;;15.10;99.90;;;;;;5018512;28;20134;-86
2021/06/16 04:25:29;;;;;;;16.75;14.10;;;15.20;99.90;;;;;;5035963;28;20054;-86
2021/06/16 04:27:56;;;;;;;14.68;13.10;;;15.30;99.90;;;;;;5018697;28;20060;-86
2021/06/16 04:30:24;;;;;;;14.18;12.77;;;15.50;99.90;;;;;;5019399;28;20099;-86
2021/06/16 04:32:51;;;;;;;15.73;13.85;;;15.70;99.90;;;;;;5037815;28;20462;-86
2021/06/16 04:35:19;;;;;;;16.65;13.00;;;15.70;99.90;;;;;;5029717;28;20065;-86
2021/06/16 04:37:47;;;;;;;15.00;11.90;;;15.90;99.90;;;;;;5031417;28;20126;-86
2021/06/16 04:40:14;;;;;;;13.57;11.75;;;16.00;99.90;;;;;;5018775;28;20140;-87
2021/06/16 04:42:41;;;;;;;12.95;11.60;;;16.10;99.90;;;;;;5017064;28;20081;-86
2021/06/16 04:45:08;;;;;;;11.70;10.60;;;16.30;99.90;;;;;;5017873;28;20045;-86
2021/06/16 04:47:36;;;;;;;11.43;10.43;;;16.40;99.90;;;;;;5035946;28;20054;-86
2021/06/16 04:50:06;;;;;;;12.63;10.50;;;16.60;99.90;;;;;;5018212;28;20060;-86
2021/06/16 04:52:33;;;;;;;11.25;10.18;;;16.80;99.90;;;;;;5017927;28;20049;-86
2021/06/16 04:55:00;;;;;;;10.93;9.77;;;17.30;99.90;;;;;;5018152;28;20049;-86
2021/06/16 04:57:27;;;;;;;11.55;10.18;;;17.70;99.90;;;;;;5018160;28;20080;-86
2021/06/16 04:59:54;;;;;;;11.23;10.15;;;18.00;99.90;;;;;;5017117;28;20064;-87
2021/06/16 05:02:21;;;;;;;11.38;10.10;;;18.20;99.90;;;;;;5035468;28;20115;-87
2021/06/16 05:04:47;;;;;;;12.88;10.15;;;18.30;99.90;;;;;;5017835;28;20478;-87
2021/06/16 05:07:14;;;;;;;12.73;9.60;;;18.70;99.90;;;;;;5017918;28;20481;-87
2021/06/16 05:09:41;;;;;;;10.30;9.25;;;19.30;99.90;;;;;;5017537;28;20489;-87
2021/06/16 05:12:09;;;;;;;10.27;9.25;;;20.00;99.90;;;;;;5035104;28;20549;-86
2021/06/16 05:14:36;;;;;;;10.70;8.55;;;20.50;99.90;;;;;;5017644;28;20076;-87
2021/06/16 05:17:03;;;;;;;10.77;9.68;;;20.30;99.90;;;;;;5017365;28;20417;-87
2021/06/16 05:19:30;;;;;;;10.48;9.38;;;20.30;99.90;;;;;;5018043;28;20067;-86
2021/06/16 05:22:06;;;;;;;11.00;9.50;;;20.30;99.90;;;;;;5017620;28;20597;-87
2021/06/16 05:24:33;;;;;;;15.07;11.25;;;20.30;99.90;;;;;;5017599;28;20053;-87
2021/06/16 05:26:59;;;;;;;12.13;9.93;;;20.60;99.90;;;;;;5034742;28;20053;-87
2021/06/16 05:29:26;;;;;;;16.55;12.00;;;20.70;99.90;;;;;;5033425;28;20049;-87
2021/06/16 05:31:53;;;;;;;34.17;18.25;;;20.90;99.90;;;;;;5017358;28;20055;-86
2021/06/16 05:34:20;;;;;;;43.90;19.30;;;21.00;99.90;;;;;;5017438;28;20559;-87
2021/06/16 05:36:47;;;;;;;40.92;19.17;;;21.10;99.90;;;;;;5017156;28;20052;-87
2021/06/16 05:39:14;;;;;;;38.35;18.55;;;21.50;99.90;;;;;;5017108;28;20063;-86
2021/06/16 05:41:40;;;;;;;47.05;19.23;;;22.50;99.90;;;;;;5017167;28;20080;-86
2021/06/16 05:44:07;;;;;;;62.45;24.15;;;23.20;99.90;;;;;;5017227;28;20107;-87
2021/06/16 05:46:34;;;;;;;40.50;18.67;;;23.60;99.90;;;;;;5016933;28;20137;-86
2021/06/16 05:49:01;;;;;;;23.42;13.07;;;23.90;99.90;;;;;;5017128;28;20172;-87
2021/06/16 05:51:28;;;;;;;24.73;12.45;;;23.90;99.90;;;;;;5016967;28;20144;-87
2021/06/16 05:53:55;;;;;;;21.17;11.98;;;24.10;99.90;;;;;;5022966;28;20035;-86
2021/06/16 05:56:22;;;;;;;20.55;11.57;;;24.10;99.90;;;;;;5050916;28;20080;-86
2021/06/16 05:58:49;;;;;;;23.88;11.45;;;24.30;99.90;;;;;;5018409;28;20483;-86
2021/06/16 06:01:15;;;;;;;23.70;11.73;;;23.70;99.90;;;;;;5034307;28;20056;-87
2021/06/16 06:03:42;;;;;;;30.92;12.88;;;23.30;99.90;;;;;;5016919;28;20107;-87
2021/06/16 06:06:10;;;;;;;24.67;12.27;;;23.00;99.90;;;;;;5016881;28;20078;-86
2021/06/16 06:08:36;;;;;;;26.90;11.82;;;23.20;99.90;;;;;;5034262;28;20041;-86
2021/06/16 06:11:03;;;;;;;18.40;9.85;;;23.00;99.90;;;;;;5016541;28;20560;-86
2021/06/16 06:13:30;;;;;;;22.40;11.13;;;23.10;99.90;;;;;;5034142;28;20053;-86
2021/06/16 06:15:57;;;;;;;29.38;11.70;;;23.20;99.90;;;;;;5016702;28;20057;-87
2021/06/16 06:18:24;;;;;;;27.20;11.07;;;23.10;99.90;;;;;;5034179;28;20449;-87
2021/06/16 06:20:50;;;;;;;30.08;10.98;;;23.30;99.90;;;;;;5033754;28;20061;-87
2021/06/16 06:23:17;;;;;;;26.55;9.43;;;23.60;99.90;;;;;;5016559;28;20049;-87
2021/06/16 06:25:44;;;;;;;19.40;9.07;;;23.60;99.90;;;;;;5033884;28;20053;-87
2021/06/16 06:28:11;;;;;;;34.05;10.15;;;24.30;99.90;;;;;;5016645;28;20413;-87
2021/06/16 06:30:37;;;;;;;23.15;9.75;;;24.80;99.90;;;;;;5016222;28;20510;-87
2021/06/16 06:33:04;;;;;;;26.67;10.20;;;25.40;99.90;;;;;;5016596;28;20049;-87
2021/06/16 06:35:31;;;;;;;20.40;9.60;;;25.70;99.90;;;;;;5016334;28;20062;-87
2021/06/16 06:37:58;;;;;;;18.60;9.48;;;25.90;99.90;;;;;;5016306;28;20045;-87
2021/06/16 06:40:25;;;;;;;20.20;9.85;;;26.20;99.90;;;;;;5016465;28;20045;-87
2021/06/16 06:42:52;;;;;;;13.85;9.18;;;26.00;99.90;;;;;;5016447;28;20494;-88
2021/06/16 06:45:19;;;;;;;20.27;9.65;;;25.80;99.90;;;;;;5016283;28;20053;-87
2021/06/16 06:47:45;;;;;;;20.27;9.80;;;25.80;99.90;;;;;;5010200;28;20495;-87
2021/06/16 06:50:14;;;;;;;23.17;10.73;;;26.00;99.90;;;;;;5013925;28;20552;-88
2021/06/16 06:52:43;;;;;;;22.25;9.75;;;26.70;99.90;;;;;;4996506;28;20057;-89
2021/06/16 06:55:12;;;;;;;20.55;9.30;;;26.60;99.90;;;;;;4996641;28;20133;-87
2021/06/16 06:57:40;;;;;;;17.45;9.68;;;27.80;99.90;;;;;;5013677;28;20581;-87
2021/06/16 07:00:09;;;;;;;18.65;9.50;;;29.20;99.90;;;;;;5014134;28;20132;-88
2021/06/16 07:02:36;;;;;;;20.13;8.70;;;30.50;99.90;;;;;;4996445;28;20160;-87
2021/06/16 07:05:04;;;;;;;17.60;8.88;;;32.00;97.10;;;;;;4996289;28;20054;-88
2021/06/16 07:07:31;;;;;;;17.20;8.48;;;32.30;91.40;;;;;;4996781;28;20050;-88
2021/06/16 07:09:58;;;;;;;13.63;8.88;;;32.10;89.20;;;;;;4985482;28;20476;-87
2021/06/16 07:12:25;;;;;;;16.05;9.23;;;32.30;89.50;;;;;;4993826;28;20110;-88
2021/06/16 07:14:54;;;;;;;12.23;7.70;;;31.40;90.40;;;;;;5016257;28;20073;-87
2021/06/16 07:17:22;;;;;;;11.85;7.93;;;31.60;89.30;;;;;;5000941;28;20512;-87
2021/06/16 07:19:50;;;;;;;15.18;8.90;;;32.60;89.00;;;;;;4996524;28;20081;-88
2021/06/16 07:22:17;;;;;;;13.80;7.93;;;32.70;83.20;;;;;;4996466;28;20477;-87
2021/06/16 07:24:44;;;;;;;10.63;8.32;;;31.80;86.20;;;;;;4999778;28;20054;-87
2021/06/16 07:27:11;;;;;;;13.05;8.70;;;31.90;85.90;;;;;;4999978;28;20532;-87
2021/06/16 07:29:37;;;;;;;11.85;7.57;;;31.90;85.80;;;;;;4999862;28;20054;-87
2021/06/16 07:32:05;;;;;;;12.02;7.97;;;33.10;84.40;;;;;;5000251;28;20046;-87
2021/06/16 07:34:31;;;;;;;8.25;7.28;;;33.20;82.20;;;;;;4999226;28;20430;-89
2021/06/16 07:36:58;;;;;;;10.65;7.70;;;32.80;83.00;;;;;;4999603;28;20513;-87
2021/06/16 07:39:26;;;;;;;11.50;7.65;;;33.60;82.40;;;;;;4999872;28;20046;-88
2021/06/16 07:41:53;;;;;;;11.25;7.10;;;35.40;77.40;;;;;;4999253;28;20524;-88
2021/06/16 07:44:20;;;;;;;7.47;6.40;;;34.30;74.20;;;;;;5016698;28;20057;-88
2021/06/16 07:46:47;;;;;;;9.52;6.88;;;34.60;74.40;;;;;;4999142;28;20049;-86
2021/06/16 07:49:14;;;;;;;10.32;6.60;;;34.70;74.60;;;;;;4998243;28;20485;-88
2021/06/16 07:51:41;;;;;;;14.55;7.82;;;34.70;74.30;;;;;;4998223;28;20502;-86
2021/06/16 07:54:11;;;;;;;11.45;6.93;;;34.40;72.90;;;;;;4998501;28;20050;-88
2021/06/16 07:56:40;;;;;;;12.23;7.47;;;34.90;71.80;;;;;;5015569;28;20070;-88
2021/06/16 07:59:07;;;;;;;10.48;7.20;;;35.20;71.90;;;;;;4997788;28;20068;-89
2021/06/16 08:01:36;;;;;;;9.63;6.88;;;34.50;69.80;;;;;;4999484;28;20138;-89
2021/06/16 08:04:03;;;;;;;9.50;7.40;;;34.60;71.30;;;;;;4999423;28;20054;-90
2021/06/16 08:06:30;;;;;;;10.43;7.30;;;35.20;70.10;;;;;;4998959;28;20068;-89
2021/06/16 08:08:57;;;;;;;9.20;6.78;;;35.90;69.30;;;;;;4998223;28;20414;-94
2021/06/16 08:11:24;;;;;;;6.80;6.10;;;36.50;67.70;;;;;;4997986;28;20199;-89
2021/06/16 08:13:51;;;;;;;8.93;6.43;;;37.10;67.10;;;;;;4997919;28;20426;-90
2021/06/16 08:16:18;;;;;;;10.75;6.25;;;38.20;63.30;;;;;;4997935;28;20163;-90
2021/06/16 08:18:46;;;;;;;7.70;6.05;;;38.20;62.40;;;;;;4998241;28;20057;-88
2021/06/16 08:21:14;;;;;;;6.80;5.78;;;38.00;62.00;;;;;;4998014;28;20050;-88
2021/06/16 08:23:45;;;;;;;7.10;5.20;;;37.50;61.70;;;;;;4997949;28;20076;-88
2021/06/16 08:26:12;;;;;;;8.65;5.43;;;38.30;60.10;;;;;;4997765;28;20144;-91
2021/06/16 08:28:40;;;;;;;10.57;5.20;;;38.80;59.20;;;;;;4998077;28;20041;-93
2021/06/16 08:31:07;;;;;;;8.90;5.32;;;38.40;58.20;;;;;;4998227;28;20132;-90
2021/06/16 08:33:37;;;;;;;6.60;5.50;;;39.20;58.80;;;;;;5029206;28;20068;-87
2021/06/16 08:36:05;;;;;;;7.22;4.90;;;38.60;58.60;;;;;;5032595;28;20054;-87
2021/06/16 08:38:32;;;;;;;30.77;7.20;;;39.30;57.50;;;;;;4997962;28;20052;-88
2021/06/16 08:41:05;;;;;;;38.40;8.23;;;39.20;57.20;;;;;;4997441;28;20514;-88
2021/06/16 08:43:38;;;;;;;13.27;4.90;;;40.40;55.40;;;;;;4996749;28;20133;-86
2021/06/16 08:46:07;;;;;;;4.57;4.18;;;39.30;57.00;;;;;;4997226;28;20053;-86
2021/06/16 08:48:36;;;;;;;7.32;5.10;;;39.70;56.60;;;;;;5003412;28;91843;-88
2021/06/16 08:51:05;;;;;;;4.72;4.32;;;41.40;55.40;;;;;;5027812;28;20080;-86
2021/06/16 08:53:33;;;;;;;6.38;3.95;;;40.70;53.90;;;;;;5017797;28;20419;-87
2021/06/16 08:56:00;;;;;;;6.82;5.03;;;41.00;53.50;;;;;;5017508;28;20049;-87
2021/06/16 08:58:27;;;;;;;4.47;4.07;;;40.70;53.50;;;;;;5017603;28;20050;-88
2021/06/16 09:00:54;;;;;;;5.55;4.47;;;39.30;54.60;;;;;;5017665;28;20494;-86
2021/06/16 09:03:21;;;;;;;6.28;4.63;;;38.40;55.80;;;;;;5034839;28;20049;-86
2021/06/16 09:05:50;;;;;;;4.93;4.30;;;38.60;55.70;;;;;;5017311;28;20501;-89
2021/06/16 09:08:22;;;;;;;5.40;4.57;;;39.00;55.70;;;;;;5017608;28;20045;-87
2021/06/16 09:10:52;;;;;;;9.65;4.70;;;39.20;54.10;;;;;;5017471;28;20053;-91
2021/06/16 09:13:32;;;;;;;7.88;4.20;;;38.40;55.80;;;;;;5017336;28;20417;-87
2021/06/16 09:16:00;;;;;;;5.97;4.40;;;38.00;56.80;;;;;;5034722;28;20095;-87
2021/06/16 09:18:41;;;;;;;6.28;4.22;;;38.10;54.80;;;;;;5017399;28;20045;-87
2021/06/16 09:21:07;;;;;;;7.35;4.18;;;38.00;55.40;;;;;;5017211;28;20045;-89
2021/06/16 09:23:34;;;;;;;5.18;3.90;;;38.80;56.00;;;;;;5017253;28;20049;-87
2021/06/16 09:26:13;;;;;;;4.57;4.15;;;39.00;55.40;;;;;;5016813;28;20068;-87
2021/06/16 09:28:51;;;;;;;6.15;4.00;;;39.80;55.00;;;;;;5017547;28;20049;-88
2021/06/16 09:31:21;;;;;;;3.85;3.47;;;40.10;52.90;;;;;;5017083;28;20076;-86
2021/06/16 09:33:50;;;;;;;4.93;3.53;;;42.20;52.60;;;;;;5016895;28;20046;-86
2021/06/16 09:36:19;;;;;;;5.85;3.03;;;42.80;50.50;;;;;;5033932;28;20512;-89
2021/06/16 09:38:48;;;;;;;4.25;3.17;;;44.30;47.70;;;;;;5017125;28;20045;-89
2021/06/16 09:41:20;;;;;;;4.25;3.78;;;42.70;47.90;;;;;;5016865;28;20045;-87
2021/06/16 09:43:49;;;;;;;4.63;3.42;;;42.30;49.40;;;;;;5016841;28;20049;-87
2021/06/16 09:46:16;;;;;;;4.13;3.67;;;41.00;48.00;;;;;;5016518;28;20053;-87
2021/06/16 09:48:45;;;;;;;6.93;3.75;;;40.60;49.50;;;;;;5014976;28;20054;-89
2021/06/16 09:51:37;;;;;;;5.00;3.60;;;40.50;50.10;;;;;;5017706;28;20490;-89
2021/06/16 09:54:18;;;;;;;4.53;3.40;;;40.00;51.80;;;;;;5050222;28;20120;-88
2021/06/16 09:56:52;;;;;;;5.00;3.22;;;39.50;50.90;;;;;;5024729;28;20133;-86
2021/06/16 09:59:39;;;;;;;7.85;3.53;;;39.40;51.00;;;;;;5016736;28;20068;-86
2021/06/16 10:02:23;;;;;;;4.15;3.72;;;39.00;52.40;;;;;;5033733;28;20136;-86
2021/06/16 10:04:59;;;;;;;4.32;3.28;;;40.30;51.70;;;;;;5015950;28;20406;-86
2021/06/16 10:07:33;;;;;;;7.93;3.60;;;41.50;50.30;;;;;;5016190;28;20049;-89
2021/06/16 10:10:02;;;;;;;7.13;3.15;;;41.40;48.60;;;;;;5033583;28;20049;-88
2021/06/16 10:12:37;;;;;;;5.10;3.20;;;40.20;49.70;;;;;;5016196;28;20059;-86
2021/06/16 10:15:07;;;;;;;9.57;3.28;;;41.20;48.40;;;;;;5016168;28;20103;-86
2021/06/16 10:17:35;;;;;;;4.65;2.70;;;40.30;47.70;;;;;;5033360;28;20049;-86
2021/06/16 10:20:06;;;;;;;3.70;2.60;;;42.20;46.90;;;;;;5016541;28;20046;-87
2021/06/16 10:22:34;;;;;;;6.07;3.20;;;43.20;45.50;;;;;;5016120;28;20050;-86
2021/06/16 10:25:00;;;;;;;3.42;2.70;;;40.80;46.30;;;;;;5033235;28;20053;-87
2021/06/16 10:27:32;;;;;;;6.50;3.28;;;38.80;49.30;;;;;;5015910;28;20461;-88
2021/06/16 10:30:15;;;;;;;5.65;3.55;;;38.50;51.30;;;;;;5016098;28;20059;-86
2021/06/16 10:32:47;;;;;;;6.57;3.20;;;38.50;51.20;;;;;;5016293;28;20141;-87
2021/06/16 10:35:34;;;;;;;3.92;2.63;;;39.80;49.70;;;;;;5015692;28;20508;-86
2021/06/16 10:38:10;;;;;;;5.80;3.17;;;42.10;48.20;;;;;;5033313;28;20045;-87
2021/06/16 10:40:54;;;;;;;3.05;2.60;;;43.60;45.70;;;;;;5033059;28;20055;-85
2021/06/16 10:43:40;;;;;;;4.45;2.67;;;42.50;44.60;;;;;;5033021;28;20048;-89
2021/06/16 10:46:13;;;;;;;3.60;2.88;;;41.70;46.20;;;;;;5015777;28;20145;-86
2021/06/16 10:48:55;;;;;;;4.10;2.70;;;39.30;47.40;;;;;;5015653;28;20053;-86
2021/06/16 10:51:25;;;;;;;3.80;3.03;;;39.10;49.00;;;;;;5015874;28;20077;-86
2021/06/16 10:54:14;;;;;;;2.75;2.55;;;39.40;48.60;;;;;;5033152;28;20075;-86
2021/06/16 10:56:54;;;;;;;3.92;3.05;;;39.90;48.40;;;;;;5015715;28;20045;-88
2021/06/16 10:59:42;;;;;;;3.17;2.45;;;40.30;47.40;;;;;;5021879;28;20054;-87
2021/06/16 11:02:10;;;;;;;3.38;2.55;;;39.40;47.50;;;;;;5019957;28;20072;-88
2021/06/16 11:04:38;;;;;;;3.55;2.88;;;37.50;48.70;;;;;;5019693;28;20513;-86
2021/06/16 11:07:26;;;;;;;7.40;2.53;;;37.70;49.30;;;;;;5019441;28;20136;-87
2021/06/16 11:09:59;;;;;;;2.45;2.25;;;37.60;50.00;;;;;;5019764;28;20417;-85
2021/06/16 11:12:31;;;;;;;2.70;2.50;;;37.00;51.30;;;;;;5019524;28;20049;-87
2021/06/16 11:14:59;;;;;;;3.93;2.90;;;36.40;50.70;;;;;;5054879;28;20143;-86
2021/06/16 11:17:27;;;;;;;6.18;2.92;;;35.30;52.30;;;;;;5023396;28;20085;-86
2021/06/16 11:19:58;;;;;;;3.00;2.70;;;34.50;54.30;;;;;;5019297;28;20069;-85
2021/06/16 11:22:25;;;;;;;3.55;2.65;;;34.10;55.90;;;;;;5019372;28;20047;-86
2021/06/16 11:25:04;;;;;;;5.00;3.17;;;33.70;55.50;;;;;;5018666;28;20061;-85
2021/06/16 11:27:50;;;;;;;5.65;3.25;;;33.40;56.50;;;;;;5018733;28;20061;-85
2021/06/16 11:31:01;;;;;;;3.15;2.88;;;33.20;57.00;;;;;;5018964;28;20057;-85
2021/06/16 11:33:44;;;;;;;4.90;2.40;;;32.60;56.30;;;;;;5018445;28;20047;-84
2021/06/16 11:36:26;;;;;;;2.75;2.55;;;32.50;58.80;;;;;;5036101;28;20119;-85
2021/06/16 11:39:14;;;;;;;4.55;2.55;;;32.60;57.60;;;;;;5018494;28;20116;-86
2021/06/16 11:41:45;;;;;;;4.22;2.67;;;33.10;58.40;;;;;;5017906;28;20050;-85
2021/06/16 11:44:13;;;;;;;4.20;2.60;;;33.80;57.40;;;;;;5018524;28;20136;-85
2021/06/16 11:46:43;;;;;;;3.38;2.55;;;35.40;55.60;;;;;;5018383;28;20049;-89
2021/06/16 11:49:16;;;;;;;4.90;2.95;;;36.20;53.90;;;;;;5034785;28;20049;-86
2021/06/16 11:51:49;;;;;;;2.63;2.42;;;35.20;54.40;;;;;;5036362;28;20506;-88
2021/06/16 11:54:33;;;;;;;5.85;3.05;;;35.10;53.40;;;;;;5019041;28;20112;-87
2021/06/16 11:57:11;;;;;;;3.67;2.40;;;34.80;54.60;;;;;;5018946;28;20071;-84
2021/06/16 11:59:51;;;;;;;2.67;2.47;;;33.90;53.00;;;;;;5018807;28;20136;-85
2021/06/16 12:02:25;;;;;;;2.83;2.05;;;33.20;52.80;;;;;;5018444;28;20494;-86
2021/06/16 12:04:59;;;;;;;2.30;2.20;;;32.90;57.30;;;;;;5035339;28;20517;-86
2021/06/16 12:07:44;;;;;;;4.10;2.88;;;32.90;56.10;;;;;;5018274;28;20061;-85
2021/06/16 12:10:14;;;;;;;5.25;2.92;;;32.90;54.60;;;;;;5017900;28;20041;-85
2021/06/16 12:12:53;;;;;;;3.38;2.83;;;32.80;54.60;;;;;;5035387;28;20045;-85
2021/06/16 12:15:24;;;;;;;3.85;2.97;;;32.80;55.20;;;;;;5018045;28;20136;-89
2021/06/16 12:18:09;;;;;;;5.13;2.65;;;32.60;55.60;;;;;;5018688;28;20140;-86
2021/06/16 12:20:43;;;;;;;3.35;2.40;;;31.50;56.50;;;;;;5017830;28;20067;-86
2021/06/16 12:23:29;;;;;;;3.15;2.80;;;31.60;57.00;;;;;;5018301;28;20272;-87
2021/06/16 12:26:06;;;;;;;8.45;3.55;;;32.00;57.60;;;;;;5017553;28;20049;-86
2021/06/16 12:28:39;;;;;;;13.43;5.30;;;32.60;56.30;;;;;;5035236;28;20136;-86
2021/06/16 12:31:11;;;;;;;4.50;2.97;;;33.50;55.90;;;;;;5018158;28;20053;-85
2021/06/16 12:33:48;;;;;;;2.30;2.10;;;34.20;56.30;;;;;;5039221;28;20303;-88
2021/06/16 12:36:31;;;;;;;2.78;2.30;;;33.80;55.00;;;;;;5054940;28;20045;-86
2021/06/16 12:39:10;;;;;;;2.75;2.45;;;33.20;55.10;;;;;;5020485;28;20144;-87
2021/06/16 12:41:53;;;;;;;3.67;2.55;;;32.70;55.80;;;;;;5018287;28;20052;-85
2021/06/16 12:44:23;;;;;;;3.23;2.10;;;32.20;55.90;;;;;;5017834;28;20055;-85
2021/06/16 12:46:52;;;;;;;3.42;2.45;;;32.40;54.80;;;;;;5017647;28;20315;-86
2021/06/16 12:49:20;;;;;;;2.95;2.65;;;32.80;54.60;;;;;;5017588;28;20056;-87
2021/06/16 12:51:52;;;;;;;6.40;2.90;;;32.80;54.60;;;;;;5035061;28;20532;-86